Time;durP1;ratioP1;P1;durP2;ratioP2;P2;SDS_P1;SDS_P2;PMS_P1;PMS_P2;Temp;Humidity;BMP_temperature;BMP_pressure;BME280_temperature;BME280_humidity;BME280_pressure;Samples;Min_cycle;Max_cycle;Signal;HPM_P1;HPM_P2
2022/04/26 03:36:17;;;;;;;2.92;2.30;;;13.80;68.40;;;;;;5014481;28;20044;-64
2022/04/26 03:38:45;;;;;;;3.53;2.30;;;13.70;67.90;;;;;;5014649;28;20030;-64
2022/04/26 03:41:10;;;;;;;4.90;2.42;;;13.70;67.90;;;;;;5014540;28;20464;-57
2022/04/26 03:43:37;;;;;;;3.10;2.33;;;13.70;67.90;;;;;;5014416;28;20033;-63
2022/04/26 03:46:03;;;;;;;3.47;2.42;;;13.80;68.00;;;;;;5013418;28;20432;-61
2022/04/26 03:48:29;;;;;;;5.35;2.85;;;13.70;67.80;;;;;;5014368;28;20502;-52
2022/04/26 03:50:54;;;;;;;4.43;2.40;;;13.70;67.80;;;;;;5014229;28;20057;-54
2022/04/26 03:53:20;;;;;;;3.22;2.38;;;13.70;68.00;;;;;;5014475;28;20468;-63
2022/04/26 03:55:46;;;;;;;3.00;2.40;;;13.70;68.80;;;;;;5014567;28;20042;-51
2022/04/26 03:58:12;;;;;;;2.90;2.22;;;13.60;68.00;;;;;;5014353;28;20077;-63
2022/04/26 04:00:38;;;;;;;5.28;2.30;;;13.60;68.20;;;;;;5014289;28;20037;-64
2022/04/26 04:03:04;;;;;;;3.78;2.03;;;13.60;68.50;;;;;;5014434;28;20026;-64
2022/04/26 04:05:30;;;;;;;5.82;3.00;;;13.60;68.40;;;;;;5013895;28;20096;-63
2022/04/26 04:07:55;;;;;;;3.00;2.30;;;13.60;68.30;;;;;;5014220;28;20029;-64
2022/04/26 04:10:21;;;;;;;3.67;2.60;;;13.60;68.20;;;;;;5014133;28;20546;-63
2022/04/26 04:12:46;;;;;;;4.78;3.00;;;13.60;68.50;;;;;;5012661;28;20502;-62
2022/04/26 04:15:12;;;;;;;3.22;2.67;;;13.70;68.20;;;;;;5014392;28;20026;-63
2022/04/26 04:17:38;;;;;;;3.38;2.15;;;13.60;68.00;;;;;;5027873;28;20503;-63
2022/04/26 04:20:03;;;;;;;3.42;2.78;;;13.50;68.10;;;;;;5033321;28;20513;-54
2022/04/26 04:22:29;;;;;;;5.50;2.53;;;13.50;68.20;;;;;;5032665;28;20009;-63
2022/04/26 04:24:55;;;;;;;5.57;3.10;;;13.50;68.20;;;;;;5032592;28;20517;-59
2022/04/26 04:27:20;;;;;;;4.63;2.40;;;13.50;68.40;;;;;;5018204;28;20017;-64
2022/04/26 04:29:46;;;;;;;2.28;1.95;;;13.50;68.50;;;;;;5033255;28;20491;-55
2022/04/26 04:32:11;;;;;;;3.08;2.20;;;13.50;68.20;;;;;;5033542;28;20060;-64
2022/04/26 04:34:37;;;;;;;3.50;2.40;;;13.60;68.50;;;;;;5032658;28;20061;-63
2022/04/26 04:37:02;;;;;;;6.70;2.47;;;13.60;67.90;;;;;;5028883;28;20018;-58
2022/04/26 04:39:28;;;;;;;4.15;2.63;;;13.50;67.90;;;;;;5032843;28;20124;-58
2022/04/26 04:41:54;;;;;;;4.07;2.38;;;13.50;69.70;;;;;;5033170;28;20026;-55
2022/04/26 04:44:21;;;;;;;3.58;2.60;;;13.50;68.90;;;;;;5033373;28;20025;-59
2022/04/26 04:46:47;;;;;;;3.55;2.17;;;13.50;69.50;;;;;;5033096;28;20159;-62
2022/04/26 04:49:13;;;;;;;3.95;2.33;;;13.60;70.30;;;;;;5032953;28;20060;-59
2022/04/26 04:51:39;;;;;;;4.35;2.38;;;13.50;70.80;;;;;;5033230;28;20491;-62
2022/04/26 04:54:04;;;;;;;2.47;2.00;;;13.50;71.40;;;;;;5033046;28;20105;-62
2022/04/26 04:56:31;;;;;;;4.13;2.63;;;13.50;71.80;;;;;;5033281;28;20455;-52
2022/04/26 04:58:57;;;;;;;4.03;2.30;;;13.50;72.10;;;;;;5033248;28;20037;-57
2022/04/26 05:01:23;;;;;;;4.40;2.45;;;13.40;72.30;;;;;;5026120;28;20076;-61
2022/04/26 05:03:49;;;;;;;4.90;2.42;;;13.50;72.60;;;;;;5019759;28;20506;-58
2022/04/26 05:06:15;;;;;;;4.28;2.30;;;13.40;72.60;;;;;;5013346;28;20022;-57
2022/04/26 05:08:42;;;;;;;4.20;2.35;;;13.50;72.90;;;;;;5013305;28;20468;-60
2022/04/26 05:11:08;;;;;;;4.82;2.47;;;13.40;72.70;;;;;;5013124;28;20476;-60
2022/04/26 05:13:33;;;;;;;2.75;2.25;;;13.40;72.80;;;;;;5013528;28;20037;-57
2022/04/26 05:16:00;;;;;;;3.00;2.33;;;13.40;72.80;;;;;;5025464;28;20056;-56
2022/04/26 05:18:27;;;;;;;4.07;2.40;;;13.40;73.10;;;;;;5020432;28;20375;-55
2022/04/26 05:20:52;;;;;;;2.75;2.00;;;13.40;73.10;;;;;;5029803;28;20336;-52
2022/04/26 05:26:03;;;;;;;2.80;2.35;;;13.40;73.10;;;;;;5038640;28;20587;-50
2022/04/26 05:28:28;;;;;;;2.92;2.30;;;13.40;73.10;;;;;;5031065;28;20096;-54
2022/04/26 05:30:54;;;;;;;3.42;2.03;;;13.40;73.10;;;;;;5028817;28;20033;-61
2022/04/26 05:33:21;;;;;;;4.10;2.45;;;13.40;73.10;;;;;;5039028;28;20048;-60
2022/04/26 05:35:48;;;;;;;5.03;2.30;;;13.40;73.10;;;;;;5032472;28;20028;-53
2022/04/26 05:38:15;;;;;;;2.72;1.90;;;13.40;73.10;;;;;;5031927;28;20021;-52
2022/04/26 05:40:40;;;;;;;3.80;2.50;;;13.40;73.10;;;;;;5031884;28;20021;-63
2022/04/26 05:43:06;;;;;;;5.47;2.67;;;13.40;73.10;;;;;;5023121;28;20033;-61
2022/04/26 05:45:32;;;;;;;4.40;2.10;;;13.40;73.30;;;;;;5032349;28;20164;-53
2022/04/26 05:47:57;;;;;;;5.03;2.15;;;13.40;73.30;;;;;;5035874;28;20027;-54
2022/04/26 05:50:23;;;;;;;6.20;2.45;;;13.40;73.40;;;;;;5032810;28;20170;-56
2022/04/26 05:52:49;;;;;;;2.85;2.35;;;13.40;73.50;;;;;;5031637;28;20071;-62
2022/04/26 05:55:15;;;;;;;3.60;2.58;;;13.40;73.80;;;;;;5032890;28;20025;-53
2022/04/26 05:57:42;;;;;;;4.30;2.20;;;13.40;74.20;;;;;;5030930;28;20490;-61
2022/04/26 06:00:09;;;;;;;3.53;2.33;;;13.40;74.30;;;;;;5034367;28;20026;-61
2022/04/26 06:02:35;;;;;;;3.55;2.75;;;13.40;74.40;;;;;;5034603;28;20033;-55
2022/04/26 06:05:00;;;;;;;6.35;2.88;;;13.50;74.50;;;;;;5036508;28;20025;-56
2022/04/26 06:07:27;;;;;;;6.50;2.97;;;13.40;74.60;;;;;;5034126;28;20022;-58
2022/04/26 06:09:54;;;;;;;6.65;2.90;;;13.40;74.70;;;;;;5028948;28;20050;-62
2022/04/26 06:12:22;;;;;;;6.53;3.63;;;13.50;74.90;;;;;;5034352;28;20091;-58
2022/04/26 06:14:47;;;;;;;4.95;3.17;;;13.50;75.10;;;;;;5035075;28;20071;-61
2022/04/26 06:17:13;;;;;;;6.68;3.25;;;13.40;75.20;;;;;;5034107;28;20035;-54
2022/04/26 06:19:38;;;;;;;5.45;2.55;;;13.50;75.30;;;;;;5023771;28;20088;-60
2022/04/26 06:22:04;;;;;;;7.38;3.35;;;13.50;75.50;;;;;;5029773;28;20064;-61
2022/04/26 06:24:29;;;;;;;4.22;3.17;;;13.50;75.60;;;;;;5035024;28;20057;-55
2022/04/26 06:26:55;;;;;;;5.68;3.33;;;13.50;75.60;;;;;;5030766;28;20056;-56
2022/04/26 06:29:20;;;;;;;6.63;2.97;;;13.50;75.90;;;;;;5027831;28;20026;-60
2022/04/26 06:31:46;;;;;;;4.97;3.15;;;13.40;76.10;;;;;;5035374;28;20048;-63
2022/04/26 06:34:12;;;;;;;5.38;3.10;;;13.40;76.30;;;;;;5035578;28;20018;-53
2022/04/26 06:36:38;;;;;;;6.43;3.15;;;13.40;76.40;;;;;;5035322;28;20117;-54
2022/04/26 06:39:04;;;;;;;5.88;3.85;;;13.40;76.50;;;;;;5034878;28;20475;-62
2022/04/26 06:41:30;;;;;;;5.38;4.00;;;13.50;76.30;;;;;;5035039;28;20026;-56
2022/04/26 06:43:56;;;;;;;8.10;3.42;;;13.60;76.70;;;;;;5035682;28;20109;-53
2022/04/26 06:46:22;;;;;;;5.90;3.10;;;13.50;76.90;;;;;;5035056;28;20061;-63
2022/04/26 06:48:49;;;;;;;6.93;4.18;;;13.50;77.00;;;;;;5035114;28;20029;-58
2022/04/26 06:51:15;;;;;;;9.63;3.95;;;13.60;77.10;;;;;;5035454;28;20037;-63
2022/04/26 06:53:41;;;;;;;6.47;3.58;;;13.60;77.10;;;;;;5035216;28;20024;-60
2022/04/26 06:56:06;;;;;;;7.75;4.78;;;13.60;77.30;;;;;;5035118;28;20403;-59
2022/04/26 06:58:33;;;;;;;8.13;4.00;;;13.60;77.50;;;;;;5035213;28;20111;-60
2022/04/26 07:01:00;;;;;;;5.70;4.30;;;13.60;77.90;;;;;;5035058;28;20018;-62
2022/04/26 07:03:26;;;;;;;7.78;5.00;;;13.60;78.30;;;;;;5035030;28;20071;-54
2022/04/26 07:05:52;;;;;;;6.22;4.40;;;13.60;78.40;;;;;;5035066;28;20021;-58
2022/04/26 07:08:18;;;;;;;9.50;4.57;;;13.60;78.60;;;;;;5034960;28;20482;-57
2022/04/26 07:10:44;;;;;;;7.22;3.78;;;13.60;78.40;;;;;;5034970;28;20080;-61
2022/04/26 07:13:09;;;;;;;9.45;3.88;;;13.70;78.20;;;;;;5034822;28;20071;-55
2022/04/26 07:15:35;;;;;;;5.55;4.18;;;13.60;78.20;;;;;;5034715;28;20474;-55
2022/04/26 07:18:00;;;;;;;4.57;3.53;;;13.60;77.80;;;;;;5033501;28;20467;-61
2022/04/26 07:20:29;;;;;;;6.32;4.55;;;13.60;78.30;;;;;;5035180;28;20470;-55
2022/04/26 07:22:56;;;;;;;8.10;3.85;;;13.70;77.50;;;;;;5035013;28;20026;-56
2022/04/26 07:25:22;;;;;;;8.77;4.28;;;13.70;77.50;;;;;;5034506;28;20475;-53
2022/04/26 07:27:47;;;;;;;7.13;3.80;;;13.70;76.90;;;;;;5034593;28;20032;-64
2022/04/26 07:30:13;;;;;;;7.30;3.88;;;13.70;76.40;;;;;;5034453;28;20032;-54
2022/04/26 07:35:23;;;;;;;8.30;3.75;;;13.80;76.20;;;;;;5035057;28;20087;-55
2022/04/26 07:37:48;;;;;;;6.32;3.38;;;13.80;74.80;;;;;;5034424;28;20030;-52
2022/04/26 07:40:14;;;;;;;6.00;2.92;;;13.70;75.90;;;;;;5034530;28;20104;-64
2022/04/26 07:42:40;;;;;;;7.10;3.20;;;13.80;76.30;;;;;;5034263;28;20029;-53
2022/04/26 07:45:06;;;;;;;8.45;3.90;;;13.90;74.70;;;;;;5034242;28;20528;-54
2022/04/26 07:47:32;;;;;;;7.95;3.45;;;13.90;74.50;;;;;;5034236;28;20017;-59
2022/04/26 07:49:58;;;;;;;7.53;4.10;;;13.90;76.20;;;;;;5034455;28;20049;-60
2022/04/26 07:52:26;;;;;;;5.00;3.58;;;13.90;76.40;;;;;;5034239;28;20390;-57
2022/04/26 07:54:52;;;;;;;7.95;3.95;;;13.90;76.50;;;;;;5033933;28;20021;-54
2022/04/26 07:57:17;;;;;;;5.03;2.88;;;13.90;77.10;;;;;;5034060;28;20036;-54
2022/04/26 07:59:43;;;;;;;8.93;4.10;;;14.00;77.00;;;;;;5033906;28;20087;-57
2022/04/26 08:02:10;;;;;;;4.97;3.70;;;14.00;76.90;;;;;;5034217;28;20072;-52
2022/04/26 08:04:36;;;;;;;9.43;3.70;;;14.00;77.20;;;;;;5033966;28;20020;-56
2022/04/26 08:07:02;;;;;;;9.95;5.03;;;14.10;77.50;;;;;;5033790;28;20047;-55
2022/04/26 08:09:28;;;;;;;7.28;4.18;;;14.10;77.20;;;;;;5033335;28;20021;-56
2022/04/26 08:11:53;;;;;;;6.10;4.38;;;14.10;76.90;;;;;;5033708;28;20025;-54
2022/04/26 08:14:20;;;;;;;6.32;3.88;;;14.10;76.20;;;;;;5033561;28;20026;-54
2022/04/26 08:16:45;;;;;;;5.95;4.32;;;14.10;75.90;;;;;;5033851;28;20017;-59
2022/04/26 08:19:11;;;;;;;9.07;3.97;;;14.10;76.10;;;;;;5033790;28;20429;-58
2022/04/26 08:21:38;;;;;;;7.53;3.80;;;14.10;75.40;;;;;;5033601;28;20028;-60
2022/04/26 08:29:31;;;;;;;6.57;3.78;;;14.20;75.10;;;;;;5033549;28;20040;-55
2022/04/26 08:31:57;;;;;;;6.07;2.88;;;14.20;74.40;;;;;;5033534;28;20037;-56
2022/04/26 08:34:23;;;;;;;6.72;3.50;;;14.30;73.00;;;;;;5033361;28;20032;-54
2022/04/26 08:36:49;;;;;;;7.07;3.03;;;14.30;72.60;;;;;;5032203;28;20025;-55
2022/04/26 08:39:15;;;;;;;7.43;3.15;;;14.30;69.70;;;;;;5033152;28;20497;-55
2022/04/26 08:41:41;;;;;;;4.53;3.55;;;14.30;70.10;;;;;;5033151;28;20033;-57
2022/04/26 08:44:10;;;;;;;7.85;2.53;;;14.30;70.00;;;;;;5033430;28;20017;-54
2022/04/26 08:52:06;;;;;;;5.95;2.90;;;14.40;69.60;;;;;;5032744;28;20047;-54
2022/04/26 08:54:33;;;;;;;7.32;2.83;;;14.50;69.10;;;;;;5030481;28;20021;-60
2022/04/26 08:56:59;;;;;;;5.10;2.83;;;14.50;68.50;;;;;;5018418;28;20029;-57
2022/04/26 08:59:26;;;;;;;5.68;2.88;;;14.50;68.60;;;;;;5033373;28;20017;-61
2022/04/26 09:02:19;;;;;;;4.22;2.50;;;14.50;67.10;;;;;;5032747;28;20021;-54
2022/04/26 09:04:46;;;;;;;5.68;2.45;;;14.60;68.70;;;;;;5032848;28;20512;-52
2022/04/26 09:07:28;;;;;;;5.57;2.17;;;14.60;67.10;;;;;;5033096;28;20029;-55
2022/04/26 09:10:11;;;;;;;4.85;2.33;;;14.70;66.00;;;;;;5032598;28;20030;-52
2022/04/26 09:13:04;;;;;;;5.93;2.50;;;14.70;66.30;;;;;;5032962;28;20022;-53
2022/04/26 09:15:56;;;;;;;9.65;3.00;;;14.70;65.50;;;;;;5032668;28;20400;-57
2022/04/26 09:18:21;;;;;;;7.55;2.78;;;14.70;66.60;;;;;;5032961;28;20026;-55
2022/04/26 09:21:04;;;;;;;8.02;2.75;;;14.70;66.70;;;;;;5032981;28;20079;-60
2022/04/26 09:23:30;;;;;;;;;;;14.70;65.80;;;;;;5037636;28;20041;-54
2022/04/26 09:25:58;;;;;;;7.50;2.80;;;14.70;67.00;;;;;;5036368;28;19916;-57
2022/04/26 09:28:29;;;;;;;7.88;2.75;;;14.70;66.00;;;;;;5036912;28;20021;-54
2022/04/26 09:30:55;;;;;;;7.45;2.42;;;14.80;66.60;;;;;;5036628;28;20284;-53
2022/04/26 09:33:38;;;;;;;3.63;2.33;;;14.80;66.50;;;;;;5037078;28;20029;-50
2022/04/26 09:36:14;;;;;;;5.15;2.83;;;14.80;67.10;;;;;;5036648;28;20091;-56
2022/04/26 09:38:47;;;;;;;8.68;3.15;;;14.80;65.20;;;;;;5036807;28;20061;-56
2022/04/26 09:41:13;;;;;;;8.90;3.40;;;14.80;64.80;;;;;;5036566;28;20021;-57
2022/04/26 09:43:38;;;;;;;8.13;2.13;;;14.80;64.30;;;;;;5036724;28;20429;-55
2022/04/26 09:46:04;;;;;;;10.68;3.47;;;14.90;65.30;;;;;;5036283;28;20433;-56
2022/04/26 09:48:35;;;;;;;8.85;2.85;;;14.90;64.30;;;;;;5036745;28;20030;-61
2022/04/26 09:51:02;;;;;;;5.72;2.80;;;14.90;66.00;;;;;;5036287;28;20479;-52
2022/04/26 09:53:29;;;;;;;6.53;3.35;;;14.90;65.20;;;;;;5036274;28;20021;-52
2022/04/26 09:55:58;;;;;;;7.97;2.75;;;14.90;64.50;;;;;;5036531;28;20037;-55
2022/04/26 09:58:26;;;;;;;5.20;2.97;;;14.90;63.60;;;;;;5036231;28;20036;-53
2022/04/26 10:00:54;;;;;;;6.22;3.10;;;14.90;63.50;;;;;;5036287;28;20433;-54
2022/04/26 10:03:24;;;;;;;6.10;3.10;;;14.90;64.60;;;;;;5036285;28;20109;-56
2022/04/26 10:05:58;;;;;;;8.23;3.10;;;14.90;63.70;;;;;;5036292;28;20108;-54
2022/04/26 10:08:24;;;;;;;5.68;2.83;;;14.90;65.20;;;;;;5035846;28;20021;-51
2022/04/26 10:10:50;;;;;;;6.85;3.75;;;15.00;66.70;;;;;;5034909;28;20556;-54
2022/04/26 10:16:21;;;;;;;7.13;3.17;;;15.00;63.80;;;;;;5035603;28;20088;-52
2022/04/26 10:18:48;;;;;;;7.82;2.78;;;15.00;64.40;;;;;;5036048;28;20045;-61
2022/04/26 10:21:22;;;;;;;5.30;3.35;;;15.00;63.20;;;;;;5036182;28;20049;-57
2022/04/26 10:23:50;;;;;;;6.15;3.90;;;15.00;62.60;;;;;;5035864;28;20033;-52
2022/04/26 10:26:25;;;;;;;7.95;3.47;;;14.90;63.10;;;;;;5035814;28;20057;-51
2022/04/26 10:28:53;;;;;;;5.47;3.40;;;14.90;64.40;;;;;;5036013;28;20033;-60
2022/04/26 10:31:40;;;;;;;9.07;3.38;;;15.00;63.20;;;;;;5035821;28;20112;-53
2022/04/26 10:34:18;;;;;;;8.57;3.70;;;15.10;63.80;;;;;;5035119;28;20108;-57
2022/04/26 10:36:47;;;;;;;6.30;3.20;;;15.20;64.10;;;;;;5035780;28;20055;-59
2022/04/26 10:39:13;;;;;;;8.02;4.07;;;15.20;64.50;;;;;;5035729;28;20087;-59
2022/04/26 10:41:43;;;;;;;9.13;3.47;;;15.20;63.30;;;;;;5035559;28;20429;-62
2022/04/26 10:44:21;;;;;;;6.90;3.08;;;15.20;64.50;;;;;;5035330;28;20553;-61
2022/04/26 10:47:01;;;;;;;5.82;2.70;;;15.30;64.00;;;;;;5035638;28;20028;-63
2022/04/26 10:49:32;;;;;;;6.88;3.10;;;15.20;61.40;;;;;;5035671;28;20482;-63
2022/04/26 10:52:18;;;;;;;4.40;2.60;;;15.20;61.40;;;;;;5034947;28;20037;-62
2022/04/26 10:54:51;;;;;;;5.55;2.92;;;15.30;62.40;;;;;;5035027;28;20111;-56
2022/04/26 10:57:23;;;;;;;5.88;3.05;;;15.30;60.70;;;;;;5035455;28;20037;-60
2022/04/26 10:59:59;;;;;;;5.20;2.63;;;15.30;60.90;;;;;;5035373;28;20039;-57
2022/04/26 11:02:31;;;;;;;4.80;2.90;;;15.30;61.10;;;;;;5035197;28;20049;-62
2022/04/26 11:05:04;;;;;;;4.07;2.70;;;15.30;60.70;;;;;;5034950;28;20034;-59
2022/04/26 11:07:31;;;;;;;8.98;3.33;;;15.30;61.70;;;;;;5035027;28;20018;-53
2022/04/26 11:09:58;;;;;;;6.68;2.53;;;15.30;59.00;;;;;;5034929;28;20041;-53
2022/04/26 11:12:25;;;;;;;4.75;3.03;;;15.30;60.30;;;;;;5034996;28;20434;-59
2022/04/26 11:14:53;;;;;;;6.25;3.05;;;15.30;60.00;;;;;;5034818;28;20048;-58
2022/04/26 11:17:21;;;;;;;6.53;2.95;;;15.30;59.60;;;;;;5035070;28;20021;-63
2022/04/26 11:19:53;;;;;;;5.65;3.13;;;15.30;59.30;;;;;;5034951;28;20033;-56
2022/04/26 11:22:19;;;;;;;7.72;3.22;;;15.30;58.90;;;;;;5034759;28;20025;-57
2022/04/26 11:30:24;;;;;;;7.70;3.15;;;15.30;58.30;;;;;;5034777;28;20529;-62
2022/04/26 11:32:51;;;;;;;8.07;4.13;;;15.30;59.30;;;;;;5034572;28;20029;-55
2022/04/26 11:35:21;;;;;;;4.15;3.00;;;15.40;58.20;;;;;;5034544;28;20017;-62
2022/04/26 11:37:48;;;;;;;7.88;3.50;;;15.40;58.30;;;;;;5034593;28;20356;-58
2022/04/26 11:40:26;;;;;;;5.90;3.25;;;15.40;58.90;;;;;;5034539;28;20022;-58
2022/04/26 11:42:52;;;;;;;6.07;4.00;;;15.40;58.40;;;;;;5034134;28;20112;-62
2022/04/26 11:45:18;;;;;;;8.75;3.58;;;15.40;58.00;;;;;;5033676;28;20021;-62
2022/04/26 11:47:48;;;;;;;5.90;3.40;;;15.40;58.60;;;;;;5034451;28;20082;-63
2022/04/26 11:50:31;;;;;;;4.53;3.05;;;15.40;58.20;;;;;;5033931;28;20076;-60
2022/04/26 11:53:02;;;;;;;9.48;3.33;;;15.40;58.50;;;;;;5033964;28;20026;-58
2022/04/26 11:55:33;;;;;;;7.60;4.10;;;15.50;58.30;;;;;;5034364;28;20097;-61
2022/04/26 11:58:20;;;;;;;6.23;3.50;;;15.50;57.80;;;;;;5034146;28;20022;-62
2022/04/26 12:00:56;;;;;;;12.82;3.80;;;15.50;58.50;;;;;;5034225;28;20021;-56
2022/04/26 12:03:25;;;;;;;6.95;3.03;;;15.60;58.80;;;;;;5033994;28;20021;-62
2022/04/26 12:06:06;;;;;;;6.63;3.20;;;15.60;58.30;;;;;;5033801;28;20060;-56
2022/04/26 12:08:41;;;;;;;5.30;3.20;;;15.60;59.50;;;;;;5033935;28;20020;-58
2022/04/26 12:11:21;;;;;;;8.35;3.40;;;15.60;60.00;;;;;;5033832;28;20044;-59
2022/04/26 12:14:19;;;;;;;4.65;3.30;;;15.70;60.40;;;;;;5033880;28;20014;-59
2022/04/26 12:16:44;;;;;;;5.30;2.72;;;15.70;61.10;;;;;;5033528;28;20041;-61
2022/04/26 12:19:10;;;;;;;8.00;3.78;;;15.70;61.80;;;;;;5033465;28;20079;-54
2022/04/26 12:21:59;;;;;;;8.55;4.30;;;15.70;60.50;;;;;;5033769;28;20031;-61
2022/04/26 12:24:27;;;;;;;7.88;3.83;;;15.80;59.50;;;;;;5033621;28;20036;-57
2022/04/26 12:27:03;;;;;;;8.27;3.38;;;15.70;58.70;;;;;;5033494;28;20087;-62
2022/04/26 12:29:29;;;;;;;4.28;3.25;;;15.70;59.50;;;;;;5033653;28;20494;-59
2022/04/26 12:31:55;;;;;;;6.50;3.65;;;15.60;59.70;;;;;;5032350;28;20045;-59
2022/04/26 12:34:24;;;;;;;8.65;3.70;;;15.70;61.20;;;;;;5032978;28;20032;-56
2022/04/26 12:37:00;;;;;;;8.65;3.70;;;15.70;60.00;;;;;;5033529;28;20027;-63
2022/04/26 12:39:44;;;;;;;7.35;3.10;;;15.70;59.80;;;;;;5033421;28;20363;-57
2022/04/26 12:42:14;;;;;;;5.10;4.05;;;15.80;60.90;;;;;;5033559;28;20025;-57
2022/04/26 12:44:51;;;;;;;8.02;4.22;;;15.80;60.20;;;;;;5033169;28;20021;-55
2022/04/26 12:50:29;;;;;;;7.57;4.57;;;15.80;60.30;;;;;;5033439;28;20498;-54
2022/04/26 12:52:55;;;;;;;6.95;4.03;;;15.80;60.30;;;;;;5033415;28;20026;-60
2022/04/26 12:55:24;;;;;;;9.38;3.80;;;15.90;60.40;;;;;;5032952;28;20827;-62
2022/04/26 12:57:51;;;;;;;5.18;4.00;;;15.90;61.00;;;;;;5033147;28;20029;-58
2022/04/26 13:00:20;;;;;;;7.35;4.05;;;15.80;60.30;;;;;;5033116;28;20029;-59
2022/04/26 13:02:52;;;;;;;6.78;3.60;;;15.80;59.60;;;;;;5033010;28;20434;-54
2022/04/26 13:05:19;;;;;;;9.63;4.03;;;15.80;60.50;;;;;;5033189;28;20072;-56
2022/04/26 13:07:48;;;;;;;6.03;3.60;;;15.90;61.80;;;;;;5033181;28;20033;-55
2022/04/26 13:10:15;;;;;;;4.78;3.92;;;15.90;61.70;;;;;;5032854;28;20029;-54
2022/04/26 13:12:41;;;;;;;7.60;4.40;;;16.00;61.10;;;;;;5033178;28;20471;-57
2022/04/26 13:15:10;;;;;;;6.53;3.50;;;16.00;60.70;;;;;;5032986;28;20045;-62
2022/04/26 13:17:37;;;;;;;6.43;4.07;;;16.00;60.60;;;;;;5032603;28;20493;-61
2022/04/26 13:20:04;;;;;;;5.43;2.40;;;16.00;60.00;;;;;;5033039;28;20479;-60
2022/04/26 13:22:30;;;;;;;5.75;3.47;;;16.00;61.80;;;;;;5032838;28;20046;-62
2022/04/26 13:24:56;;;;;;;8.02;3.20;;;16.10;60.90;;;;;;5032581;28;20029;-59
2022/04/26 13:27:21;;;;;;;6.78;3.22;;;16.10;61.30;;;;;;5032920;28;20068;-54
2022/04/26 13:29:48;;;;;;;5.88;3.28;;;16.10;60.10;;;;;;5032676;28;20026;-57
2022/04/26 13:32:15;;;;;;;6.32;3.88;;;16.10;60.30;;;;;;5032560;28;20464;-55
2022/04/26 13:34:40;;;;;;;7.72;3.70;;;16.10;60.20;;;;;;5032840;28;20021;-63
2022/04/26 13:37:09;;;;;;;6.55;3.85;;;16.10;60.60;;;;;;5032616;28;20087;-55
2022/04/26 13:39:35;;;;;;;5.47;3.03;;;16.10;59.60;;;;;;5032897;28;20033;-54
2022/04/26 13:42:01;;;;;;;9.82;3.55;;;16.20;60.10;;;;;;5033070;28;20032;-52
2022/04/26 13:44:27;;;;;;;7.22;3.35;;;16.20;59.50;;;;;;5032729;28;20022;-54
2022/04/26 13:46:53;;;;;;;42.03;6.32;;;16.20;58.90;;;;;;5032386;28;20446;-53
2022/04/26 13:49:19;;;;;;;6.18;3.65;;;16.20;57.30;;;;;;5032438;28;20495;-55
2022/04/26 13:51:44;;;;;;;5.32;3.58;;;16.20;56.80;;;;;;5032485;28;20061;-54
2022/04/26 13:54:10;;;;;;;5.88;2.75;;;16.20;57.00;;;;;;5030961;28;20017;-57
2022/04/26 13:56:36;;;;;;;5.40;3.15;;;16.30;58.40;;;;;;5031514;28;20403;-56
2022/04/26 13:59:02;;;;;;;4.95;3.03;;;16.30;56.80;;;;;;5021488;28;20704;-61
2022/04/26 14:01:28;;;;;;;5.75;2.80;;;16.30;56.70;;;;;;5031581;28;20029;-58
2022/04/26 14:03:53;;;;;;;6.40;2.75;;;16.40;57.40;;;;;;5030814;28;20025;-56
2022/04/26 14:06:21;;;;;;;4.07;3.03;;;16.40;57.50;;;;;;5044137;28;20104;-61
2022/04/26 14:08:50;;;;;;;8.35;3.10;;;16.40;56.60;;;;;;5029406;28;20067;-62
2022/04/26 14:11:17;;;;;;;10.20;3.45;;;16.40;57.30;;;;;;5036459;28;20033;-63
2022/04/26 14:21:55;;;;;;;5.55;3.20;;;16.40;57.70;;;;;;5019695;28;20047;-62
2022/04/26 14:24:20;;;;;;;6.35;3.03;;;16.50;57.60;;;;;;5034595;28;20021;-60
2022/04/26 14:26:46;;;;;;;4.80;2.75;;;16.40;58.10;;;;;;5035018;28;20045;-57
2022/04/26 14:29:12;;;;;;;6.18;3.50;;;16.40;57.40;;;;;;5034927;28;20009;-61
2022/04/26 14:31:38;;;;;;;4.28;2.72;;;16.40;57.20;;;;;;5034505;28;20064;-62
2022/04/26 14:34:04;;;;;;;6.43;3.08;;;16.40;57.70;;;;;;5035059;28;20022;-61
2022/04/26 14:36:30;;;;;;;7.88;3.08;;;16.40;57.80;;;;;;5034807;28;20437;-60
2022/04/26 14:38:55;;;;;;;6.38;2.85;;;16.40;58.60;;;;;;5035357;28;20163;-60
2022/04/26 14:41:21;;;;;;;4.70;3.05;;;16.40;57.90;;;;;;5034478;28;20463;-59
2022/04/26 14:43:46;;;;;;;5.28;2.85;;;16.50;57.80;;;;;;5034299;28;20040;-51
2022/04/26 14:46:12;;;;;;;5.35;3.25;;;16.50;58.10;;;;;;5034688;28;20492;-56
2022/04/26 14:48:38;;;;;;;7.28;3.60;;;16.50;57.70;;;;;;5033871;28;20025;-58
2022/04/26 14:51:04;;;;;;;7.78;3.40;;;16.40;58.20;;;;;;5035627;28;20068;-59
2022/04/26 14:53:30;;;;;;;6.25;2.80;;;16.50;58.20;;;;;;5035478;28;20059;-58
2022/04/26 14:55:58;;;;;;;5.55;3.17;;;16.50;58.40;;;;;;5032200;28;20061;-53
2022/04/26 14:58:23;;;;;;;2.85;2.38;;;16.50;58.10;;;;;;5033936;28;20022;-62
2022/04/26 15:00:49;;;;;;;5.15;2.78;;;16.50;58.80;;;;;;5032752;28;20532;-52
2022/04/26 15:03:14;;;;;;;4.00;2.38;;;16.50;59.20;;;;;;5035804;28;20511;-57
2022/04/26 15:05:40;;;;;;;4.13;2.53;;;16.50;59.50;;;;;;5035636;28;20028;-58
2022/04/26 15:10:50;;;;;;;4.72;2.90;;;16.50;59.30;;;;;;5022152;28;20060;-61
2022/04/26 15:18:43;;;;;;;4.95;2.97;;;16.50;59.40;;;;;;5034066;28;20110;-63
2022/04/26 15:21:09;;;;;;;6.15;2.95;;;16.50;60.00;;;;;;5037741;28;20068;-61
2022/04/26 15:23:35;;;;;;;6.22;3.25;;;16.50;59.20;;;;;;5042768;28;20468;-59
2022/04/26 15:26:03;;;;;;;4.03;2.95;;;16.40;59.60;;;;;;5032596;28;20044;-64
2022/04/26 15:28:30;;;;;;;6.05;2.65;;;16.40;59.50;;;;;;5021685;28;20077;-62
2022/04/26 15:30:55;;;;;;;6.10;3.20;;;16.40;59.80;;;;;;5022930;28;20482;-62
2022/04/26 15:33:22;;;;;;;3.20;2.70;;;16.40;59.60;;;;;;5033333;28;20049;-63
2022/04/26 15:35:48;;;;;;;8.07;3.35;;;16.40;60.10;;;;;;5034183;28;20026;-63
2022/04/26 15:38:14;;;;;;;3.97;2.55;;;16.30;59.10;;;;;;5030507;28;20037;-62
2022/04/26 15:40:46;;;;;;;7.03;3.13;;;16.30;60.10;;;;;;5032908;28;20025;-63
2022/04/26 15:43:12;;;;;;;4.45;2.92;;;16.30;59.60;;;;;;5031948;28;20029;-54
2022/04/26 15:45:37;;;;;;;4.35;2.80;;;16.30;59.50;;;;;;5033300;28;20493;-59
2022/04/26 15:48:04;;;;;;;4.63;2.40;;;16.30;59.30;;;;;;5033658;28;20109;-52
2022/04/26 15:50:30;;;;;;;4.38;2.70;;;16.40;60.40;;;;;;5023562;28;20034;-61
2022/04/26 15:52:55;;;;;;;5.45;3.05;;;16.40;59.80;;;;;;5018062;28;20395;-61
2022/04/26 15:55:22;;;;;;;4.80;2.85;;;16.40;60.30;;;;;;5028845;28;20069;-60
2022/04/26 15:57:49;;;;;;;6.32;2.63;;;16.30;59.60;;;;;;5025697;28;20041;-63
2022/04/26 16:00:16;;;;;;;5.20;2.95;;;16.30;59.70;;;;;;5030629;28;20033;-64
2022/04/26 16:02:43;;;;;;;5.10;2.75;;;16.30;60.00;;;;;;5024762;28;20049;-63
2022/04/26 16:05:09;;;;;;;7.78;3.22;;;16.20;60.30;;;;;;5021629;28;20502;-63
2022/04/26 16:07:35;;;;;;;6.93;3.10;;;16.20;60.20;;;;;;5029260;28;20070;-61
2022/04/26 16:20:57;;;;;;;5.18;2.55;;;16.40;59.40;;;;;;5031890;28;20036;-58
2022/04/26 16:23:23;;;;;;;7.18;2.17;;;16.40;60.50;;;;;;5030642;28;20037;-54
2022/04/26 16:25:48;;;;;;;6.90;1.88;;;16.40;61.70;;;;;;5031058;28;20033;-58
2022/04/26 16:28:14;;;;;;;5.75;2.92;;;16.40;62.50;;;;;;5032589;28;20379;-62
2022/04/26 16:30:41;;;;;;;5.57;2.70;;;16.50;60.10;;;;;;5024451;28;20379;-59
2022/04/26 16:33:07;;;;;;;7.43;2.88;;;16.40;59.40;;;;;;5034930;28;20056;-60
2022/04/26 16:35:34;;;;;;;4.85;2.65;;;16.40;59.90;;;;;;5029949;28;20147;-61
2022/04/26 16:38:01;;;;;;;4.53;3.65;;;16.40;60.10;;;;;;5030259;28;20071;-54
2022/04/26 16:40:28;;;;;;;5.15;2.60;;;16.40;59.30;;;;;;5026673;28;20026;-53
2022/04/26 16:42:54;;;;;;;6.43;2.47;;;16.30;60.00;;;;;;5025605;28;20090;-58
2022/04/26 16:45:20;;;;;;;4.05;3.30;;;16.30;59.50;;;;;;5027266;28;20018;-61
2022/04/26 16:47:45;;;;;;;9.30;2.80;;;16.30;59.80;;;;;;5030583;28;20026;-48
2022/04/26 16:50:12;;;;;;;4.13;2.42;;;16.40;60.50;;;;;;5033189;28;20029;-70
2022/04/26 16:52:38;;;;;;;4.10;2.42;;;16.30;59.70;;;;;;5034905;28;20116;-65
2022/04/26 16:55:05;;;;;;;4.57;2.50;;;16.30;60.20;;;;;;5028402;28;20017;-63
2022/04/26 16:57:31;;;;;;;3.30;2.13;;;16.30;60.40;;;;;;5029230;28;20061;-62
2022/04/26 16:59:57;;;;;;;7.38;3.47;;;16.30;61.20;;;;;;5030061;28;20045;-64
2022/04/26 17:02:26;;;;;;;3.15;2.50;;;16.30;60.00;;;;;;5029763;28;20108;-61
2022/04/26 17:04:52;;;;;;;3.65;2.10;;;16.40;61.10;;;;;;5029016;28;20526;-60
2022/04/26 17:07:18;;;;;;;3.20;2.30;;;16.40;61.20;;;;;;5050553;28;20486;-53
2022/04/26 17:09:44;;;;;;;3.92;2.92;;;16.40;60.70;;;;;;5032189;28;20025;-48
2022/04/26 17:12:12;;;;;;;6.10;2.92;;;16.40;61.60;;;;;;5028987;28;20029;-67
2022/04/26 17:14:39;;;;;;;4.25;2.53;;;16.30;61.10;;;;;;5030839;28;20035;-52
2022/04/26 17:17:05;;;;;;;5.25;2.70;;;16.30;61.50;;;;;;5031159;28;20045;-61
2022/04/26 17:19:31;;;;;;;4.05;2.50;;;16.30;61.70;;;;;;5027557;28;20026;-62
2022/04/26 17:21:58;;;;;;;3.80;2.58;;;16.30;61.30;;;;;;5014769;28;20029;-61